sensor_id;sensor_type;location;lat;lon;timestamp;P1;durP1;ratioP1;P2;durP2;ratioP2
15151;SDS011;7676;50.900;6.234;2024-02-28T00:01:12;51.23;;;32.60;;
15151;SDS011;7676;50.900;6.234;2024-02-28T00:16:15;48.87;;;28.07;;
15151;SDS011;7676;50.900;6.234;2024-02-28T00:31:17;53.50;;;31.07;;
15151;SDS011;7676;50.900;6.234;2024-02-28T00:46:20;48.20;;;29.27;;
15151;SDS011;7676;50.900;6.234;2024-02-28T01:01:23;57.40;;;31.93;;
15151;SDS011;7676;50.900;6.234;2024-02-28T01:16:25;54.60;;;32.07;;
15151;SDS011;7676;50.900;6.234;2024-02-28T01:31:28;52.93;;;31.57;;
15151;SDS011;7676;50.900;6.234;2024-02-28T01:46:30;49.77;;;28.87;;
15151;SDS011;7676;50.900;6.234;2024-02-28T02:01:34;50.40;;;28.97;;
15151;SDS011;7676;50.900;6.234;2024-02-28T02:16:37;51.27;;;29.10;;
15151;SDS011;7676;50.900;6.234;2024-02-28T02:31:40;58.03;;;32.77;;
15151;SDS011;7676;50.900;6.234;2024-02-28T02:46:43;53.07;;;30.03;;
15151;SDS011;7676;50.900;6.234;2024-02-28T03:01:46;56.90;;;32.00;;
15151;SDS011;7676;50.900;6.234;2024-02-28T03:16:50;56.57;;;31.33;;
15151;SDS011;7676;50.900;6.234;2024-02-28T03:31:53;62.47;;;34.63;;
15151;SDS011;7676;50.900;6.234;2024-02-28T03:46:56;62.60;;;34.13;;
15151;SDS011;7676;50.900;6.234;2024-02-28T04:02:00;60.23;;;32.13;;
15151;SDS011;7676;50.900;6.234;2024-02-28T04:17:03;57.90;;;32.47;;
15151;SDS011;7676;50.900;6.234;2024-02-28T04:32:05;57.70;;;31.23;;
15151;SDS011;7676;50.900;6.234;2024-02-28T04:47:08;56.43;;;30.03;;
15151;SDS011;7676;50.900;6.234;2024-02-28T05:02:11;50.17;;;27.20;;
15151;SDS011;7676;50.900;6.234;2024-02-28T05:17:14;47.60;;;26.90;;
15151;SDS011;7676;50.900;6.234;2024-02-28T05:32:18;46.40;;;25.13;;
15151;SDS011;7676;50.900;6.234;2024-02-28T05:47:21;55.50;;;29.33;;
15151;SDS011;7676;50.900;6.234;2024-02-28T06:02:26;48.27;;;26.17;;
15151;SDS011;7676;50.900;6.234;2024-02-28T06:17:29;55.27;;;29.53;;
15151;SDS011;7676;50.900;6.234;2024-02-28T06:32:32;51.80;;;28.27;;
15151;SDS011;7676;50.900;6.234;2024-02-28T06:47:34;48.03;;;26.23;;
15151;SDS011;7676;50.900;6.234;2024-02-28T07:02:40;45.93;;;25.03;;
15151;SDS011;7676;50.900;6.234;2024-02-28T07:17:43;46.10;;;25.60;;
15151;SDS011;7676;50.900;6.234;2024-02-28T07:32:46;46.67;;;25.17;;
15151;SDS011;7676;50.900;6.234;2024-02-28T07:47:49;47.03;;;25.73;;
15151;SDS011;7676;50.900;6.234;2024-02-28T08:02:51;41.53;;;23.40;;
15151;SDS011;7676;50.900;6.234;2024-02-28T08:17:53;38.80;;;24.00;;
15151;SDS011;7676;50.900;6.234;2024-02-28T08:32:56;36.47;;;21.30;;
15151;SDS011;7676;50.900;6.234;2024-02-28T08:48:00;29.17;;;18.33;;
15151;SDS011;7676;50.900;6.234;2024-02-28T09:03:04;31.67;;;18.93;;
15151;SDS011;7676;50.900;6.234;2024-02-28T09:18:07;29.03;;;15.83;;
15151;SDS011;7676;50.900;6.234;2024-02-28T09:33:11;24.53;;;15.33;;
15151;SDS011;7676;50.900;6.234;2024-02-28T09:48:14;23.73;;;15.23;;
15151;SDS011;7676;50.900;6.234;2024-02-28T10:03:18;23.00;;;14.50;;
15151;SDS011;7676;50.900;6.234;2024-02-28T10:18:22;24.47;;;15.40;;
15151;SDS011;7676;50.900;6.234;2024-02-28T10:33:26;27.43;;;14.87;;
15151;SDS011;7676;50.900;6.234;2024-02-28T10:48:31;22.40;;;12.87;;
15151;SDS011;7676;50.900;6.234;2024-02-28T11:03:33;20.60;;;11.27;;
15151;SDS011;7676;50.900;6.234;2024-02-28T11:18:47;17.97;;;11.20;;
15151;SDS011;7676;50.900;6.234;2024-02-28T11:33:51;22.43;;;12.93;;
15151;SDS011;7676;50.900;6.234;2024-02-28T11:48:54;17.00;;;10.60;;
15151;SDS011;7676;50.900;6.234;2024-02-28T12:03:57;18.33;;;11.27;;
15151;SDS011;7676;50.900;6.234;2024-02-28T12:19:03;14.13;;;8.27;;
15151;SDS011;7676;50.900;6.234;2024-02-28T12:34:08;12.40;;;7.60;;
15151;SDS011;7676;50.900;6.234;2024-02-28T12:49:11;10.40;;;7.30;;
15151;SDS011;7676;50.900;6.234;2024-02-28T13:04:14;12.80;;;7.70;;
15151;SDS011;7676;50.900;6.234;2024-02-28T13:19:16;7.70;;;5.53;;
15151;SDS011;7676;50.900;6.234;2024-02-28T13:34:18;8.47;;;4.90;;
15151;SDS011;7676;50.900;6.234;2024-02-28T13:49:22;7.20;;;5.00;;
15151;SDS011;7676;50.900;6.234;2024-02-28T14:04:24;7.27;;;4.80;;
15151;SDS011;7676;50.900;6.234;2024-02-28T14:19:27;10.37;;;6.57;;
15151;SDS011;7676;50.900;6.234;2024-02-28T14:34:30;10.07;;;7.07;;
15151;SDS011;7676;50.900;6.234;2024-02-28T14:49:33;9.30;;;6.60;;
15151;SDS011;7676;50.900;6.234;2024-02-28T15:04:36;9.00;;;5.50;;
15151;SDS011;7676;50.900;6.234;2024-02-28T15:19:38;8.20;;;5.87;;
15151;SDS011;7676;50.900;6.234;2024-02-28T15:34:41;9.30;;;6.03;;
15151;SDS011;7676;50.900;6.234;2024-02-28T15:49:43;8.53;;;6.10;;
15151;SDS011;7676;50.900;6.234;2024-02-28T16:04:46;8.07;;;5.57;;
15151;SDS011;7676;50.900;6.234;2024-02-28T16:19:50;6.80;;;5.00;;
15151;SDS011;7676;50.900;6.234;2024-02-28T16:34:53;6.97;;;4.00;;
15151;SDS011;7676;50.900;6.234;2024-02-28T16:49:56;6.97;;;5.00;;
15151;SDS011;7676;50.900;6.234;2024-02-28T17:04:58;5.77;;;4.30;;
15151;SDS011;7676;50.900;6.234;2024-02-28T17:20:01;4.77;;;3.43;;
15151;SDS011;7676;50.900;6.234;2024-02-28T17:35:08;4.27;;;3.10;;
15151;SDS011;7676;50.900;6.234;2024-02-28T17:50:11;5.07;;;3.10;;
15151;SDS011;7676;50.900;6.234;2024-02-28T18:05:14;5.53;;;2.90;;
15151;SDS011;7676;50.900;6.234;2024-02-28T18:20:17;3.03;;;2.60;;
15151;SDS011;7676;50.900;6.234;2024-02-28T18:35:20;3.27;;;2.60;;
15151;SDS011;7676;50.900;6.234;2024-02-28T18:50:22;4.37;;;2.90;;
15151;SDS011;7676;50.900;6.234;2024-02-28T19:05:26;5.13;;;4.20;;
15151;SDS011;7676;50.900;6.234;2024-02-28T19:20:28;13.70;;;8.63;;
15151;SDS011;7676;50.900;6.234;2024-02-28T19:35:31;11.10;;;7.40;;
15151;SDS011;7676;50.900;6.234;2024-02-28T19:50:34;7.03;;;6.23;;
15151;SDS011;7676;50.900;6.234;2024-02-28T20:05:36;4.07;;;3.17;;
15151;SDS011;7676;50.900;6.234;2024-02-28T20:20:38;3.20;;;2.80;;
15151;SDS011;7676;50.900;6.234;2024-02-28T20:35:41;3.27;;;2.50;;
15151;SDS011;7676;50.900;6.234;2024-02-28T20:50:44;2.73;;;2.23;;
15151;SDS011;7676;50.900;6.234;2024-02-28T21:05:48;3.97;;;2.53;;
15151;SDS011;7676;50.900;6.234;2024-02-28T21:20:51;3.17;;;2.60;;
15151;SDS011;7676;50.900;6.234;2024-02-28T21:35:54;2.63;;;2.43;;
15151;SDS011;7676;50.900;6.234;2024-02-28T21:50:58;2.77;;;1.97;;
15151;SDS011;7676;50.900;6.234;2024-02-28T22:06:01;2.37;;;1.80;;
15151;SDS011;7676;50.900;6.234;2024-02-28T22:21:03;1.97;;;1.73;;
15151;SDS011;7676;50.900;6.234;2024-02-28T22:36:10;2.03;;;1.83;;
15151;SDS011;7676;50.900;6.234;2024-02-28T22:51:13;3.03;;;1.90;;
15151;SDS011;7676;50.900;6.234;2024-02-28T23:06:15;3.20;;;2.23;;
15151;SDS011;7676;50.900;6.234;2024-02-28T23:21:18;2.17;;;1.90;;
15151;SDS011;7676;50.900;6.234;2024-02-28T23:36:21;1.83;;;1.63;;
15151;SDS011;7676;50.900;6.234;2024-02-28T23:51:24;2.33;;;2.00;;
